createdAt,value
2022-10-02T00:00:16.564Z,98.5
2022-10-02T00:01:17.199Z,98.5
2022-10-02T00:02:16.736Z,98.6
2022-10-02T00:03:17.175Z,98.7
2022-10-02T00:04:16.688Z,98.6
2022-10-02T00:05:17.144Z,98.7
2022-10-02T00:06:16.591Z,98.8
2022-10-02T00:07:17.033Z,98.7
2022-10-02T00:08:23.999Z,98.8
2022-10-02T00:09:16.638Z,98.7
2022-10-02T00:10:17.130Z,98.5
2022-10-02T00:11:16.622Z,98.5
2022-10-02T00:12:17.167Z,98.6
2022-10-02T00:13:16.630Z,98.6
2022-10-02T00:14:17.118Z,98.5
2022-10-02T00:15:16.636Z,98.5
2022-10-02T00:16:17.279Z,98.5
2022-10-02T00:17:16.725Z,98.4
2022-10-02T00:18:17.174Z,98.5
2022-10-02T00:19:16.603Z,98.6
2022-10-02T00:20:17.064Z,98.5
2022-10-02T00:21:16.484Z,98.2
2022-10-02T00:22:17.192Z,98.1
2022-10-02T00:23:16.614Z,98.2
2022-10-02T00:24:17.060Z,98.3
2022-10-02T00:25:16.520Z,98.2
2022-10-02T00:26:17.253Z,98.4
2022-10-02T00:27:16.710Z,98.5
2022-10-02T00:28:17.319Z,98.6
2022-10-02T00:29:16.792Z,98.7
2022-10-02T00:30:17.305Z,98.7
2022-10-02T00:31:16.906Z,98.7
2022-10-02T00:32:17.129Z,98.8
2022-10-02T00:33:16.554Z,98.8
2022-10-02T00:34:17.013Z,98.7
2022-10-02T00:35:16.433Z,98.8
2022-10-02T00:36:16.894Z,98.8
2022-10-02T00:37:17.317Z,98.8
2022-10-02T00:38:16.741Z,98.9
2022-10-02T00:39:17.219Z,98.9
2022-10-02T00:40:16.688Z,99.0
2022-10-02T00:41:17.142Z,99.0
2022-10-02T00:42:16.684Z,99.1
2022-10-02T00:43:17.164Z,99.0
2022-10-02T00:44:16.629Z,99.1
2022-10-02T00:45:17.115Z,99.2
2022-10-02T00:46:16.736Z,99.2
2022-10-02T00:47:17.270Z,98.9
2022-10-02T00:48:16.713Z,99.0
2022-10-02T00:49:17.133Z,99.2
2022-10-02T00:50:16.633Z,99.0
2022-10-02T00:51:17.058Z,99.2
2022-10-02T00:52:16.959Z,99.3
2022-10-02T00:53:17.390Z,99.5
2022-10-02T00:54:16.888Z,99.4
2022-10-02T00:55:17.365Z,99.5
2022-10-02T00:56:16.890Z,99.5
2022-10-02T00:57:17.339Z,99.5
2022-10-02T00:58:16.795Z,99.5
2022-10-02T00:59:17.262Z,99.6
2022-10-02T01:00:16.741Z,99.6
2022-10-02T01:01:17.334Z,99.6
2022-10-02T01:02:16.919Z,99.7
2022-10-02T01:03:17.377Z,99.7
2022-10-02T01:04:16.808Z,99.8
2022-10-02T01:05:17.249Z,99.8
2022-10-02T01:06:16.673Z,99.8
2022-10-02T01:07:17.094Z,99.8
2022-10-02T01:08:16.547Z,99.8
2022-10-02T01:09:16.995Z,99.8
2022-10-02T01:10:16.473Z,99.8
2022-10-02T01:11:16.932Z,99.8
2022-10-02T01:12:16.800Z,99.8
2022-10-02T01:13:17.279Z,99.8
2022-10-02T01:14:16.742Z,99.8
2022-10-02T01:15:17.188Z,99.8
2022-10-02T01:16:16.793Z,99.8
2022-10-02T01:17:17.312Z,99.8
2022-10-02T01:18:16.735Z,99.8
2022-10-02T01:19:17.159Z,99.8
2022-10-02T01:20:16.617Z,99.8
2022-10-02T01:21:17.036Z,99.8
2022-10-02T01:22:16.459Z,99.9
2022-10-02T01:23:16.931Z,99.8
2022-10-02T01:24:17.395Z,99.9
2022-10-02T01:25:16.875Z,99.9
2022-10-02T01:26:17.380Z,100.0
2022-10-02T01:27:16.836Z,99.9
2022-10-02T01:28:17.498Z,100.0
2022-10-02T01:29:16.994Z,100.0
2022-10-02T01:30:16.435Z,100.0
2022-10-02T01:31:17.067Z,100.0
2022-10-02T01:32:16.448Z,100.0
2022-10-02T01:33:16.863Z,100.0
2022-10-02T01:34:17.337Z,100.0
2022-10-02T01:35:16.772Z,100.0
2022-10-02T01:36:17.196Z,100.0
2022-10-02T01:37:16.622Z,100.0
2022-10-02T01:38:17.101Z,100.0
2022-10-02T01:39:16.564Z,100.0
2022-10-02T01:40:17.010Z,100.0
2022-10-02T01:41:16.468Z,100.0
2022-10-02T01:42:17.210Z,100.0
2022-10-02T01:43:16.691Z,100.0
2022-10-02T01:44:17.189Z,100.0
2022-10-02T01:45:16.636Z,100.0
2022-10-02T01:46:17.176Z,100.0
2022-10-02T01:47:16.640Z,100.0
2022-10-02T01:48:17.112Z,100.0
2022-10-02T01:49:16.546Z,100.0
2022-10-02T01:50:16.985Z,100.0
2022-10-02T01:51:16.414Z,100.0
2022-10-02T01:52:16.959Z,100.0
2022-10-02T01:53:17.443Z,100.0
2022-10-02T01:54:16.919Z,100.0
2022-10-02T01:55:17.399Z,100.0
2022-10-02T01:56:16.854Z,100.0
2022-10-02T01:57:17.344Z,100.0
2022-10-02T01:58:16.819Z,100.0
2022-10-02T01:59:17.314Z,100.0
2022-10-02T02:00:16.779Z,100.0
2022-10-02T02:01:17.413Z,100.0
2022-10-02T02:02:16.952Z,100.0
2022-10-02T02:03:16.394Z,100.0
2022-10-02T02:04:16.842Z,100.0
2022-10-02T02:05:17.266Z,100.0
2022-10-02T02:06:16.701Z,100.0
2022-10-02T02:07:17.183Z,100.0
2022-10-02T02:08:16.662Z,100.0
2022-10-02T02:09:17.105Z,100.0
2022-10-02T02:10:16.550Z,100.0
2022-10-02T02:11:17.001Z,100.0
2022-10-02T02:12:16.851Z,100.0
2022-10-02T02:13:17.307Z,100.0
2022-10-02T02:14:16.755Z,100.0
2022-10-02T02:15:17.218Z,100.0
2022-10-02T02:16:16.794Z,100.0
2022-10-02T02:17:17.254Z,100.0
2022-10-02T02:18:16.706Z,100.0
2022-10-02T02:19:17.134Z,100.0
2022-10-02T02:20:16.557Z,100.0
2022-10-02T02:21:16.981Z,100.0
2022-10-02T02:22:16.565Z,100.0
2022-10-02T02:23:17.030Z,100.0
2022-10-02T02:24:16.507Z,100.0
2022-10-02T02:25:16.972Z,100.0
2022-10-02T02:26:16.449Z,100.0
2022-10-02T02:27:16.910Z,100.0
2022-10-02T02:28:17.576Z,100.0
2022-10-02T02:29:17.056Z,100.0
2022-10-02T02:30:16.485Z,100.0
2022-10-02T02:31:17.057Z,100.0
2022-10-02T02:32:16.469Z,100.0
2022-10-02T02:33:16.907Z,100.0
2022-10-02T02:34:17.337Z,100.0
2022-10-02T02:35:16.760Z,100.0
2022-10-02T02:36:17.186Z,100.0
2022-10-02T02:37:16.713Z,100.0
2022-10-02T02:38:17.163Z,100.0
2022-10-02T02:39:16.640Z,100.0
2022-10-02T02:40:17.100Z,100.0
2022-10-02T02:41:16.580Z,100.0
2022-10-02T02:42:19.406Z,100.0
2022-10-02T02:43:16.564Z,100.0
2022-10-02T02:44:17.028Z,100.0
2022-10-02T02:45:16.452Z,100.0
2022-10-02T02:46:16.919Z,100.0
2022-10-02T02:47:17.367Z,100.0
2022-10-02T02:48:16.812Z,100.0
2022-10-02T02:49:17.253Z,100.0
2022-10-02T02:50:16.711Z,100.0
2022-10-02T02:51:17.170Z,100.0
2022-10-02T02:52:16.754Z,100.0
2022-10-02T02:53:17.239Z,100.0
2022-10-02T02:54:16.716Z,100.0
2022-10-02T02:55:17.172Z,100.0
2022-10-02T02:56:16.623Z,100.0
2022-10-02T02:57:17.089Z,100.0
2022-10-02T02:58:16.528Z,100.0
2022-10-02T02:59:16.947Z,100.0
2022-10-02T03:00:17.404Z,100.0
2022-10-02T03:01:16.937Z,100.0
2022-10-02T03:02:16.764Z,100.0
2022-10-02T03:03:17.251Z,100.0
2022-10-02T03:04:16.680Z,100.0
2022-10-02T03:05:17.108Z,100.0
2022-10-02T03:06:16.572Z,100.0
2022-10-02T03:07:17.039Z,100.0
2022-10-02T03:08:16.503Z,100.0
2022-10-02T03:09:16.972Z,100.0
2022-10-02T03:10:16.447Z,100.0
2022-10-02T03:11:16.918Z,100.0
2022-10-02T03:12:17.256Z,100.0
2022-10-02T03:13:16.695Z,100.0
2022-10-02T03:14:17.130Z,100.0
2022-10-02T03:15:16.578Z,100.0
2022-10-02T03:16:17.242Z,100.0
2022-10-02T03:17:16.673Z,100.0
2022-10-02T03:18:17.141Z,100.0
2022-10-02T03:19:16.572Z,100.0
2022-10-02T03:20:17.035Z,100.0
2022-10-02T03:21:16.515Z,100.0
2022-10-02T03:22:16.718Z,100.0
2022-10-02T03:23:17.210Z,100.0
2022-10-02T03:24:16.703Z,100.0
2022-10-02T03:25:17.173Z,100.0
2022-10-02T03:26:16.661Z,100.0
2022-10-02T03:27:17.134Z,100.0
2022-10-02T03:28:50.942Z,100.0
2022-10-02T03:29:17.082Z,100.0
2022-10-02T03:30:16.525Z,100.0
2022-10-02T03:31:17.053Z,100.0
2022-10-02T03:32:16.584Z,100.0
2022-10-02T03:33:17.006Z,100.0
2022-10-02T03:34:16.427Z,100.0
2022-10-02T03:35:16.901Z,100.0
2022-10-02T03:36:17.379Z,100.0
2022-10-02T03:37:16.851Z,100.0
2022-10-02T03:38:17.324Z,100.0
2022-10-02T03:39:26.429Z,100.0
2022-10-02T03:40:16.997Z,100.0
2022-10-02T03:41:16.472Z,100.0
2022-10-02T03:42:16.770Z,100.0
2022-10-02T03:43:17.190Z,100.0
2022-10-02T03:44:16.638Z,100.0
2022-10-02T03:45:49.757Z,100.0
2022-10-02T03:46:16.673Z,100.0
2022-10-02T03:47:17.139Z,100.0
2022-10-02T03:48:16.592Z,100.0
2022-10-02T03:49:17.014Z,100.0
2022-10-02T03:50:16.482Z,100.0
2022-10-02T03:51:16.951Z,100.0
2022-10-02T03:52:16.626Z,100.0
2022-10-02T03:53:17.104Z,100.0
2022-10-02T03:54:16.563Z,100.0
2022-10-02T03:55:17.034Z,100.0
2022-10-02T03:56:16.483Z,100.0
2022-10-02T03:57:16.921Z,100.0
2022-10-02T03:58:17.344Z,100.0
2022-10-02T03:59:16.767Z,100.0
2022-10-02T04:00:17.218Z,100.0
2022-10-02T04:01:16.793Z,100.0
2022-10-02T04:02:17.258Z,100.0
2022-10-02T04:03:16.846Z,100.0
2022-10-02T04:04:17.346Z,100.0
2022-10-02T04:05:16.821Z,100.0
2022-10-02T04:06:17.333Z,100.0
2022-10-02T04:07:16.820Z,100.0
2022-10-02T04:08:17.282Z,100.0
2022-10-02T04:09:16.767Z,99.9
2022-10-02T04:10:17.277Z,99.8
2022-10-02T04:11:16.760Z,99.8
2022-10-02T04:12:16.918Z,99.8
2022-10-02T04:13:17.397Z,99.8
2022-10-02T04:14:16.862Z,99.8
2022-10-02T04:15:17.467Z,99.8
2022-10-02T04:16:17.035Z,99.8
2022-10-02T04:17:16.691Z,99.8
2022-10-02T04:18:17.117Z,99.8
2022-10-02T04:19:16.577Z,99.7
2022-10-02T04:20:17.052Z,99.7
2022-10-02T04:21:16.551Z,99.8
2022-10-02T04:22:17.006Z,99.8
2022-10-02T04:23:16.479Z,99.8
2022-10-02T04:24:16.982Z,99.8
2022-10-02T04:25:16.640Z,99.7
2022-10-02T04:26:17.280Z,99.7
2022-10-02T04:27:16.743Z,99.7
2022-10-02T04:28:17.393Z,99.7
2022-10-02T04:29:16.850Z,99.7
2022-10-02T04:30:17.298Z,99.7
2022-10-02T04:31:16.821Z,99.7
2022-10-02T04:32:16.684Z,99.7
2022-10-02T04:33:17.127Z,99.7
2022-10-02T04:34:16.607Z,99.7
2022-10-02T04:35:17.070Z,99.6
2022-10-02T04:36:16.569Z,99.6
2022-10-02T04:37:17.079Z,99.5
2022-10-02T04:38:16.536Z,99.5
2022-10-02T04:39:17.007Z,99.5
2022-10-02T04:40:16.483Z,99.5
2022-10-02T04:41:16.909Z,99.5
2022-10-02T04:42:17.580Z,99.5
2022-10-02T04:43:17.031Z,99.5
2022-10-02T04:44:16.454Z,99.5
2022-10-02T04:45:16.877Z,99.4
2022-10-02T04:46:17.414Z,99.5
2022-10-02T04:47:16.920Z,99.4
2022-10-02T04:48:17.368Z,99.3
2022-10-02T04:49:16.822Z,99.3
2022-10-02T04:50:17.317Z,99.3
2022-10-02T04:51:16.796Z,99.3
2022-10-02T04:52:16.816Z,99.2
2022-10-02T04:53:17.281Z,99.2
2022-10-02T04:54:16.749Z,99.2
2022-10-02T04:55:17.211Z,99.2
2022-10-02T04:56:16.639Z,99.2
2022-10-02T04:57:17.079Z,99.2
2022-10-02T04:58:16.524Z,99.1
2022-10-02T04:59:16.962Z,99.1
2022-10-02T05:00:17.435Z,99.1
2022-10-02T05:01:16.954Z,99.2
2022-10-02T05:02:17.550Z,99.2
2022-10-02T05:03:17.050Z,99.2
2022-10-02T05:04:16.516Z,99.2
2022-10-02T05:05:16.996Z,99.2
2022-10-02T05:06:16.465Z,99.2
2022-10-02T05:07:16.969Z,99.2
2022-10-02T05:08:17.453Z,99.2
2022-10-02T05:09:16.926Z,99.1
2022-10-02T05:10:17.391Z,99.1
2022-10-02T05:11:16.823Z,99.0
2022-10-02T05:12:17.332Z,99.0
2022-10-02T05:13:16.762Z,99.0
2022-10-02T05:14:17.191Z,99.0
2022-10-02T05:15:16.631Z,99.0
2022-10-02T05:16:17.185Z,98.8
2022-10-02T05:17:16.615Z,98.8
2022-10-02T05:18:18.318Z,98.8
2022-10-02T05:19:16.786Z,98.8
2022-10-02T05:20:17.252Z,98.8
2022-10-02T05:21:16.717Z,98.8
2022-10-02T05:22:16.472Z,98.8
2022-10-02T05:23:16.955Z,98.8
2022-10-02T05:24:17.406Z,98.8
2022-10-02T05:25:16.854Z,98.8
2022-10-02T05:26:17.315Z,98.8
2022-10-02T05:27:16.736Z,98.8
2022-10-02T05:28:17.345Z,98.8
2022-10-02T05:29:16.849Z,98.8
2022-10-02T05:30:17.290Z,98.8
2022-10-02T05:31:16.949Z,98.8
2022-10-02T05:32:16.448Z,98.8
2022-10-02T05:33:16.897Z,98.8
2022-10-02T05:34:17.345Z,98.8
2022-10-02T05:35:16.812Z,98.5
2022-10-02T05:36:17.324Z,98.5
2022-10-02T05:37:16.800Z,98.4
2022-10-02T05:38:17.265Z,98.3
2022-10-02T05:39:16.711Z,98.3
2022-10-02T05:40:17.151Z,98.3
2022-10-02T05:41:16.572Z,98.3
2022-10-02T05:42:17.185Z,98.2
2022-10-02T05:43:16.627Z,98.2
2022-10-02T05:44:17.063Z,98.3
2022-10-02T05:45:16.499Z,98.3
2022-10-02T05:46:17.005Z,98.2
2022-10-02T05:47:16.511Z,98.1
2022-10-02T05:48:17.006Z,98.2
2022-10-02T05:49:16.485Z,98.2
2022-10-02T05:50:16.965Z,98.2
2022-10-02T05:51:17.426Z,98.0
2022-10-02T05:52:17.001Z,98.2
2022-10-02T05:53:16.472Z,98.2
2022-10-02T05:54:16.920Z,98.2
2022-10-02T05:55:17.345Z,98.2
2022-10-02T05:56:16.765Z,98.2
2022-10-02T05:57:17.198Z,98.2
2022-10-02T05:58:16.662Z,98.2
2022-10-02T05:59:17.086Z,98.3
2022-10-02T06:00:16.549Z,98.3
2022-10-02T06:01:17.111Z,98.3
2022-10-02T06:02:16.711Z,98.4
2022-10-02T06:03:17.201Z,98.5
2022-10-02T06:04:16.932Z,98.5
2022-10-02T06:05:17.399Z,98.4
2022-10-02T06:06:16.904Z,98.4
2022-10-02T06:07:17.413Z,98.4
2022-10-02T06:08:16.900Z,98.4
2022-10-02T06:09:20.556Z,98.4
2022-10-02T06:10:17.047Z,98.4
2022-10-02T06:11:16.513Z,98.3
2022-10-02T06:12:16.945Z,98.4
2022-10-02T06:13:17.366Z,98.3
2022-10-02T06:14:16.827Z,98.3
2022-10-02T06:15:17.276Z,98.0
2022-10-02T06:16:16.814Z,97.9
2022-10-02T06:17:17.355Z,98.0
2022-10-02T06:18:16.832Z,98.0
2022-10-02T06:19:17.281Z,98.1
2022-10-02T06:20:16.748Z,98.0
2022-10-02T06:21:17.222Z,98.1
2022-10-02T06:22:16.555Z,98.0
2022-10-02T06:23:17.056Z,98.0
2022-10-02T06:24:16.494Z,97.9
2022-10-02T06:25:16.953Z,97.6
2022-10-02T06:26:17.392Z,97.6
2022-10-02T06:27:16.887Z,97.7
2022-10-02T06:28:17.472Z,97.8
2022-10-02T06:29:23.697Z,97.8
2022-10-02T06:30:16.726Z,97.8
2022-10-02T06:31:17.253Z,97.9
2022-10-02T06:32:17.180Z,97.7
2022-10-02T06:33:16.660Z,97.8
2022-10-02T06:34:17.110Z,97.8
2022-10-02T06:35:16.589Z,97.8
2022-10-02T06:36:17.034Z,97.9
2022-10-02T06:37:16.496Z,98.0
2022-10-02T06:38:16.967Z,97.9
2022-10-02T06:39:17.398Z,98.0
2022-10-02T06:40:16.829Z,98.1
2022-10-02T06:41:17.295Z,98.2
2022-10-02T06:42:17.306Z,98.2
2022-10-02T06:43:16.749Z,98.2
2022-10-02T06:44:17.250Z,98.2
2022-10-02T06:45:16.696Z,98.2
2022-10-02T06:46:17.168Z,98.2
2022-10-02T06:47:16.668Z,98.2
2022-10-02T06:48:17.137Z,98.1
2022-10-02T06:49:16.625Z,97.8
2022-10-02T06:50:17.098Z,97.8
2022-10-02T06:51:16.571Z,98.0
2022-10-02T06:52:17.145Z,98.2
2022-10-02T06:53:16.611Z,98.2
2022-10-02T06:54:17.028Z,98.2
2022-10-02T06:55:16.497Z,98.2
2022-10-02T06:56:16.922Z,98.2
2022-10-02T06:57:17.373Z,98.2
2022-10-02T06:58:16.793Z,98.2
2022-10-02T06:59:17.257Z,98.2
2022-10-02T07:00:16.706Z,98.2
2022-10-02T07:01:17.342Z,98.2
2022-10-02T07:02:16.968Z,98.2
2022-10-02T07:03:16.485Z,98.2
2022-10-02T07:04:16.971Z,98.2
2022-10-02T07:05:17.461Z,98.2
2022-10-02T07:06:16.927Z,98.1
2022-10-02T07:07:17.399Z,98.1
2022-10-02T07:08:16.843Z,98.3
2022-10-02T07:09:17.282Z,98.4
2022-10-02T07:10:16.718Z,98.3
2022-10-02T07:11:17.155Z,97.8
2022-10-02T07:12:16.861Z,98.0
2022-10-02T07:13:17.324Z,98.1
2022-10-02T07:14:16.753Z,98.2
2022-10-02T07:15:17.216Z,97.9
2022-10-02T07:16:16.771Z,97.8
2022-10-02T07:17:22.463Z,97.6
2022-10-02T07:18:16.986Z,97.7
2022-10-02T07:19:16.478Z,97.3
2022-10-02T07:20:16.966Z,97.3
2022-10-02T07:21:17.462Z,97.5
2022-10-02T07:22:43.759Z,97.5
2022-10-02T07:23:16.911Z,97.8
2022-10-02T07:24:17.384Z,97.8
2022-10-02T07:25:16.815Z,97.6
2022-10-02T07:26:17.276Z,97.8
2022-10-02T07:27:16.695Z,97.8
2022-10-02T07:28:17.305Z,97.7
2022-10-02T07:29:16.766Z,97.7
2022-10-02T07:30:17.240Z,97.9
2022-10-02T07:31:16.797Z,98.2
2022-10-02T07:32:17.396Z,98.2
2022-10-02T07:33:16.865Z,98.0
2022-10-02T07:34:17.330Z,97.9
2022-10-02T07:35:16.776Z,97.8
2022-10-02T07:36:17.231Z,97.7
2022-10-02T07:37:16.824Z,97.8
2022-10-02T07:38:17.258Z,97.8
2022-10-02T07:39:16.712Z,97.8
2022-10-02T07:40:17.138Z,98.0
2022-10-02T07:41:16.588Z,97.6
2022-10-02T07:42:16.957Z,97.5
2022-10-02T07:43:17.417Z,97.8
2022-10-02T07:44:16.864Z,97.5
2022-10-02T07:45:17.334Z,97.5
2022-10-02T07:46:16.922Z,97.8
2022-10-02T07:47:16.454Z,97.6
2022-10-02T07:48:16.940Z,97.8
2022-10-02T07:49:17.407Z,97.4
2022-10-02T07:50:16.863Z,97.4
2022-10-02T07:51:21.203Z,97.3
2022-10-02T07:52:16.764Z,97.2
2022-10-02T07:53:17.205Z,97.5
2022-10-02T07:54:16.676Z,97.8
2022-10-02T07:55:17.102Z,97.6
2022-10-02T07:56:16.529Z,97.7
2022-10-02T07:57:16.979Z,97.7
2022-10-02T07:58:16.400Z,97.7
2022-10-02T07:59:16.867Z,97.8
2022-10-02T08:00:17.347Z,97.7
2022-10-02T08:01:16.804Z,97.8
2022-10-02T08:02:16.796Z,97.7
2022-10-02T08:03:17.417Z,97.7
2022-10-02T08:04:16.900Z,97.5
2022-10-02T08:05:17.471Z,97.6
2022-10-02T08:06:16.968Z,97.6
2022-10-02T08:07:17.423Z,97.7
2022-10-02T08:08:16.881Z,97.7
2022-10-02T08:09:17.312Z,97.7
2022-10-02T08:10:16.747Z,97.8
2022-10-02T08:11:17.169Z,98.0
2022-10-02T08:12:16.589Z,97.9
2022-10-02T08:13:17.016Z,98.1
2022-10-02T08:14:16.473Z,98.2
2022-10-02T08:15:16.942Z,97.8
2022-10-02T08:16:17.556Z,97.9
2022-10-02T08:17:17.045Z,98.0
2022-10-02T08:18:34.953Z,98.1
2022-10-02T08:19:16.690Z,98.2
2022-10-02T08:20:17.180Z,98.0
2022-10-02T08:21:16.662Z,98.2
2022-10-02T08:22:17.409Z,98.0
2022-10-02T08:23:16.840Z,98.1
2022-10-02T08:24:17.265Z,98.0
2022-10-02T08:25:16.686Z,98.0
2022-10-02T08:26:17.139Z,97.7
2022-10-02T08:27:16.558Z,97.8
2022-10-02T08:28:17.170Z,98.3
2022-10-02T08:29:16.652Z,98.3
2022-10-02T08:30:17.126Z,98.4
2022-10-02T08:31:16.762Z,98.4
2022-10-02T08:32:17.011Z,98.4
2022-10-02T08:33:16.466Z,98.4
2022-10-02T08:34:16.923Z,98.5
2022-10-02T08:35:17.389Z,98.6
2022-10-02T08:36:16.833Z,98.6
2022-10-02T08:37:17.521Z,98.8
2022-10-02T08:38:16.946Z,98.7
2022-10-02T08:39:17.398Z,98.8
2022-10-02T08:40:16.839Z,98.9
2022-10-02T08:41:17.266Z,98.8
2022-10-02T08:42:16.752Z,98.8
2022-10-02T08:43:17.240Z,98.9
2022-10-02T08:44:16.714Z,98.8
2022-10-02T08:45:17.175Z,98.8
2022-10-02T08:46:16.625Z,98.9
2022-10-02T08:47:17.109Z,99.0
2022-10-02T08:48:16.564Z,99.0
2022-10-02T08:49:17.022Z,99.0
2022-10-02T08:50:16.607Z,99.0
2022-10-02T08:51:17.071Z,99.0
2022-10-02T08:52:16.593Z,99.0
2022-10-02T08:53:17.046Z,99.0
2022-10-02T08:54:16.467Z,99.1
2022-10-02T08:55:17.080Z,99.1
2022-10-02T08:56:20.447Z,99.1
2022-10-02T08:57:16.953Z,99.2
2022-10-02T08:58:17.403Z,99.1
2022-10-02T08:59:16.877Z,99.2
2022-10-02T09:00:17.342Z,99.1
2022-10-02T09:01:16.979Z,99.2
2022-10-02T09:02:17.158Z,99.2
2022-10-02T09:03:16.645Z,99.2
2022-10-02T09:04:17.159Z,99.2
2022-10-02T09:05:16.662Z,99.2
2022-10-02T09:06:17.116Z,99.2
2022-10-02T09:07:16.583Z,99.3
2022-10-02T09:08:17.018Z,99.3
2022-10-02T09:09:16.438Z,99.4
2022-10-02T09:10:16.880Z,99.3
2022-10-02T09:11:17.298Z,99.3
2022-10-02T09:12:16.956Z,99.3
2022-10-02T09:13:17.426Z,99.3
2022-10-02T09:14:16.957Z,99.3
2022-10-02T09:15:17.442Z,99.3
2022-10-02T09:16:17.129Z,99.3
2022-10-02T09:17:16.655Z,99.3
2022-10-02T09:18:17.126Z,99.4
2022-10-02T09:19:16.584Z,99.4
2022-10-02T09:20:17.024Z,99.4
2022-10-02T09:21:16.447Z,99.4
2022-10-02T09:22:16.418Z,99.5
2022-10-02T09:23:16.864Z,99.5
2022-10-02T09:24:17.308Z,99.5
2022-10-02T09:25:16.755Z,99.5
2022-10-02T09:26:17.224Z,99.5
2022-10-02T09:27:16.672Z,99.6
2022-10-02T09:28:17.273Z,99.7
2022-10-02T09:29:16.772Z,99.7
2022-10-02T09:30:17.224Z,99.7
2022-10-02T09:31:16.884Z,99.7
2022-10-02T09:32:16.681Z,99.7
2022-10-02T09:33:17.170Z,99.7
2022-10-02T09:34:16.632Z,99.7
2022-10-02T09:35:17.095Z,99.7
2022-10-02T09:36:16.538Z,99.7
2022-10-02T09:37:16.982Z,99.8
2022-10-02T09:38:16.423Z,99.8
2022-10-02T09:39:16.896Z,99.8
2022-10-02T09:40:17.359Z,99.8
2022-10-02T09:41:16.788Z,99.8
2022-10-02T09:42:16.439Z,99.8
2022-10-02T09:43:16.919Z,99.8
2022-10-02T09:44:17.366Z,99.8
2022-10-02T09:45:16.832Z,99.9
2022-10-02T09:46:17.576Z,99.9
2022-10-02T09:47:17.084Z,99.9
2022-10-02T09:48:16.576Z,99.9
2022-10-02T09:49:17.063Z,100.0
2022-10-02T09:50:16.510Z,100.0
2022-10-02T09:51:16.950Z,100.0
2022-10-02T09:52:16.478Z,100.0
2022-10-02T09:53:16.904Z,100.0
2022-10-02T09:54:17.351Z,100.0
2022-10-02T09:55:16.808Z,100.0
2022-10-02T09:56:17.239Z,100.0
2022-10-02T09:57:16.690Z,100.0
2022-10-02T09:58:17.146Z,100.0
2022-10-02T09:59:16.631Z,100.0
2022-10-02T10:00:17.108Z,100.0
2022-10-02T10:01:16.642Z,100.0
2022-10-02T10:02:16.540Z,100.0
2022-10-02T10:03:17.025Z,100.0
2022-10-02T10:04:16.512Z,100.0
2022-10-02T10:05:16.951Z,100.0
2022-10-02T10:06:17.374Z,100.0
2022-10-02T10:07:19.299Z,100.0
2022-10-02T10:08:16.750Z,100.0
2022-10-02T10:09:17.174Z,100.0
2022-10-02T10:10:16.636Z,100.0
2022-10-02T10:11:17.061Z,100.0
2022-10-02T10:12:16.678Z,100.0
2022-10-02T10:13:17.179Z,100.0
2022-10-02T10:14:16.669Z,100.0
2022-10-02T10:15:17.178Z,100.0
2022-10-02T10:16:16.716Z,100.0
2022-10-02T10:17:17.232Z,100.0
2022-10-02T10:18:16.704Z,100.0
2022-10-02T10:19:17.133Z,100.0
2022-10-02T10:20:16.560Z,100.0
2022-10-02T10:21:17.003Z,100.0
2022-10-02T10:22:16.892Z,100.0
2022-10-02T10:23:17.319Z,100.0
2022-10-02T10:24:16.777Z,100.0
2022-10-02T10:25:17.225Z,100.0
2022-10-02T10:26:16.688Z,100.0
2022-10-02T10:27:17.184Z,100.0
2022-10-02T10:28:16.803Z,100.0
2022-10-02T10:29:17.285Z,100.0
2022-10-02T10:30:16.775Z,100.0
2022-10-02T10:31:17.291Z,100.0
2022-10-02T10:32:16.753Z,100.0
2022-10-02T10:33:17.256Z,100.0
2022-10-02T10:34:16.734Z,100.0
2022-10-02T10:35:17.154Z,100.0
2022-10-02T10:36:16.572Z,100.0
2022-10-02T10:37:17.011Z,100.0
2022-10-02T10:38:16.453Z,100.0
2022-10-02T10:39:16.899Z,100.0
2022-10-02T10:40:17.330Z,100.0
2022-10-02T10:41:16.803Z,100.0
2022-10-02T10:42:16.902Z,100.0
2022-10-02T10:43:17.394Z,100.0
2022-10-02T10:44:16.891Z,100.0
2022-10-02T10:45:17.358Z,100.0
2022-10-02T10:46:16.955Z,100.0
2022-10-02T10:47:16.474Z,100.0
2022-10-02T10:48:16.927Z,100.0
2022-10-02T10:49:17.377Z,100.0
2022-10-02T10:50:16.814Z,100.0
2022-10-02T10:51:17.254Z,100.0
2022-10-02T10:52:17.010Z,100.0
2022-10-02T10:53:16.429Z,100.0
2022-10-02T10:54:16.882Z,100.0
2022-10-02T10:55:17.311Z,100.0
2022-10-02T10:56:16.781Z,100.0
2022-10-02T10:57:17.456Z,100.0
2022-10-02T10:58:16.933Z,100.0
2022-10-02T10:59:25.102Z,100.0
2022-10-02T11:00:16.774Z,100.0
2022-10-02T11:01:17.526Z,100.0
2022-10-02T11:02:16.954Z,100.0
2022-10-02T11:03:16.467Z,100.0
2022-10-02T11:04:16.902Z,100.0
2022-10-02T11:05:17.384Z,100.0
2022-10-02T11:06:16.806Z,100.0
2022-10-02T11:07:17.227Z,100.0
2022-10-02T11:08:16.659Z,100.0
2022-10-02T11:09:17.089Z,100.0
2022-10-02T11:10:16.516Z,100.0
2022-10-02T11:11:16.966Z,100.0
2022-10-02T11:12:16.482Z,100.0
2022-10-02T11:13:16.979Z,100.0
2022-10-02T11:14:16.469Z,100.0
2022-10-02T11:15:16.963Z,100.0
2022-10-02T11:16:17.491Z,100.0
2022-10-02T11:17:16.951Z,100.0
2022-10-02T11:18:17.364Z,100.0
2022-10-02T11:19:21.839Z,100.0
2022-10-02T11:20:17.324Z,100.0
2022-10-02T11:21:16.752Z,100.0
2022-10-02T11:22:16.630Z,100.0
2022-10-02T11:23:17.090Z,100.0
2022-10-02T11:24:16.514Z,100.0
2022-10-02T11:25:16.997Z,100.0
2022-10-02T11:26:16.470Z,100.0
2022-10-02T11:27:16.959Z,100.0
2022-10-02T11:28:17.539Z,100.0
2022-10-02T11:29:17.037Z,100.0
2022-10-02T11:30:16.504Z,100.0
2022-10-02T11:31:17.073Z,100.0
2022-10-02T11:32:17.349Z,100.0
2022-10-02T11:33:16.790Z,100.0
2022-10-02T11:34:17.209Z,100.0
2022-10-02T11:35:16.658Z,100.0
2022-10-02T11:36:17.089Z,100.0
2022-10-02T11:37:16.553Z,100.0
2022-10-02T11:38:16.980Z,100.0
2022-10-02T11:39:16.405Z,100.0
2022-10-02T11:40:16.880Z,100.0
2022-10-02T11:41:17.351Z,100.0
2022-10-02T11:42:16.944Z,100.0
2022-10-02T11:43:17.412Z,100.0
2022-10-02T11:44:16.859Z,100.0
2022-10-02T11:45:17.337Z,100.0
2022-10-02T11:46:16.890Z,100.0
2022-10-02T11:47:17.443Z,100.0
2022-10-02T11:48:16.875Z,100.0
2022-10-02T11:49:17.326Z,100.0
2022-10-02T11:50:16.754Z,100.0
2022-10-02T11:51:17.187Z,100.0
2022-10-02T11:52:16.737Z,100.0
2022-10-02T11:53:17.162Z,100.0
2022-10-02T11:54:16.631Z,100.0
2022-10-02T11:55:17.118Z,100.0
2022-10-02T11:56:16.590Z,100.0
2022-10-02T11:57:17.048Z,100.0
2022-10-02T11:58:16.553Z,100.0
2022-10-02T11:59:17.024Z,100.0
2022-10-02T12:00:16.501Z,100.0
2022-10-02T12:01:16.965Z,100.0
2022-10-02T12:02:17.156Z,100.0
2022-10-02T12:03:16.880Z,100.0
2022-10-02T12:04:17.371Z,100.0
2022-10-02T12:05:16.819Z,100.0
2022-10-02T12:06:17.233Z,100.0
2022-10-02T12:07:16.685Z,100.0
2022-10-02T12:08:17.149Z,100.0
2022-10-02T12:09:16.585Z,100.0
2022-10-02T12:10:17.063Z,100.0
2022-10-02T12:11:16.529Z,100.0
2022-10-02T12:12:17.055Z,100.0
2022-10-02T12:13:16.516Z,100.0
2022-10-02T12:14:17.014Z,100.0
2022-10-02T12:15:16.502Z,100.0
2022-10-02T12:16:17.091Z,100.0
2022-10-02T12:17:16.594Z,100.0
2022-10-02T12:18:22.174Z,100.0
2022-10-02T12:19:16.665Z,100.0
2022-10-02T12:20:17.098Z,100.0
2022-10-02T12:21:16.525Z,100.0
2022-10-02T12:22:17.399Z,100.0
2022-10-02T12:23:16.821Z,100.0
2022-10-02T12:24:17.290Z,100.0
2022-10-02T12:25:16.788Z,100.0
2022-10-02T12:26:17.266Z,100.0
2022-10-02T12:27:16.735Z,100.0
2022-10-02T12:28:17.282Z,100.0
2022-10-02T12:29:16.794Z,100.0
2022-10-02T12:30:17.287Z,100.0
2022-10-02T12:31:16.922Z,100.0
2022-10-02T12:32:16.883Z,100.0
2022-10-02T12:33:17.325Z,100.0
2022-10-02T12:34:16.781Z,100.0
2022-10-02T12:35:17.261Z,100.0
2022-10-02T12:36:16.707Z,100.0
2022-10-02T12:37:17.150Z,100.0
2022-10-02T12:38:16.594Z,100.0
2022-10-02T12:39:22.284Z,100.0
2022-10-02T12:40:16.812Z,100.0
2022-10-02T12:41:17.320Z,100.0
2022-10-02T12:42:16.941Z,100.0
2022-10-02T12:43:17.403Z,100.0
2022-10-02T12:44:16.854Z,100.0
2022-10-02T12:45:17.306Z,100.0
2022-10-02T12:46:16.912Z,100.0
2022-10-02T12:47:16.406Z,100.0
2022-10-02T12:48:16.847Z,100.0
2022-10-02T12:49:17.291Z,100.0
2022-10-02T12:50:16.719Z,100.0
2022-10-02T12:51:17.161Z,100.0
2022-10-02T12:52:17.144Z,100.0
2022-10-02T12:53:16.606Z,100.0
2022-10-02T12:54:17.090Z,100.0
2022-10-02T12:55:16.568Z,100.0
2022-10-02T12:56:17.036Z,100.0
2022-10-02T12:57:16.515Z,100.0
2022-10-02T12:58:16.983Z,100.0
2022-10-02T12:59:16.493Z,100.0
2022-10-02T13:00:16.956Z,100.0
2022-10-02T13:01:17.538Z,100.0
2022-10-02T13:02:17.195Z,100.0
2022-10-02T13:03:16.729Z,100.0
2022-10-02T13:04:17.198Z,100.0
2022-10-02T13:05:16.626Z,100.0
2022-10-02T13:06:17.047Z,100.0